createdAt,value
2023-05-14T00:00:06.661Z,8.90
2023-05-14T00:02:33.479Z,9.68
2023-05-14T00:05:00.280Z,9.05
2023-05-14T00:07:30.904Z,8.40
2023-05-14T00:09:58.650Z,8.43
2023-05-14T00:12:26.491Z,8.70
2023-05-14T00:14:53.856Z,9.38
2023-05-14T00:17:20.761Z,8.63
2023-05-14T00:19:49.351Z,9.10
2023-05-14T00:25:07.065Z,8.80
2023-05-14T00:27:34.510Z,9.73
2023-05-14T00:30:01.213Z,9.80
2023-05-14T00:32:27.969Z,9.93
2023-05-14T00:34:54.717Z,9.25
2023-05-14T00:37:21.445Z,9.73
2023-05-14T00:39:48.191Z,9.85
2023-05-14T00:42:14.970Z,9.43
2023-05-14T00:44:41.649Z,9.68
2023-05-14T00:47:08.775Z,9.93
2023-05-14T00:49:36.068Z,9.20
2023-05-14T00:52:03.701Z,8.50
2023-05-14T00:54:30.778Z,9.10
2023-05-14T00:56:57.853Z,9.90
2023-05-14T00:59:24.603Z,8.82
2023-05-14T01:01:51.352Z,9.35
2023-05-14T01:04:18.558Z,9.05
2023-05-14T01:07:06.961Z,9.05
2023-05-14T01:09:58.259Z,8.68
2023-05-14T01:12:39.644Z,9.60
2023-05-14T01:15:11.605Z,8.77
2023-05-14T01:17:45.959Z,9.18
2023-05-14T01:20:12.911Z,10.23
2023-05-14T01:22:40.095Z,10.25
2023-05-14T01:25:08.667Z,9.88
2023-05-14T01:28:03.022Z,9.07
2023-05-14T01:30:31.535Z,9.68
2023-05-14T01:33:00.716Z,10.18
2023-05-14T01:35:29.416Z,9.77
2023-05-14T01:38:03.057Z,9.85
2023-05-14T01:40:31.920Z,9.48
2023-05-14T01:42:59.721Z,9.77
2023-05-14T01:45:26.609Z,9.15
2023-05-14T01:47:54.434Z,10.73
2023-05-14T01:50:21.524Z,10.52
2023-05-14T01:52:48.518Z,9.90
2023-05-14T01:55:16.284Z,10.95
2023-05-14T01:57:43.030Z,10.25
2023-05-14T02:00:10.977Z,10.27
2023-05-14T02:02:37.718Z,11.50
2023-05-14T02:05:07.037Z,10.25
2023-05-14T02:07:33.966Z,11.45
2023-05-14T02:10:01.055Z,10.57
2023-05-14T02:12:27.960Z,11.10
2023-05-14T02:14:54.732Z,9.55
2023-05-14T02:17:21.445Z,11.52
2023-05-14T02:19:50.711Z,9.55
2023-05-14T02:22:17.479Z,9.07
2023-05-14T02:24:44.170Z,9.00
2023-05-14T02:27:12.920Z,10.10
2023-05-14T02:29:39.672Z,9.93
2023-05-14T02:32:07.079Z,9.05
2023-05-14T02:34:48.746Z,9.25
2023-05-14T02:37:24.622Z,10.50
2023-05-14T02:39:51.307Z,10.18
2023-05-14T02:42:20.065Z,9.98
2023-05-14T02:44:51.266Z,10.93
2023-05-14T02:47:18.695Z,10.88
2023-05-14T02:49:45.464Z,11.00
2023-05-14T02:52:12.162Z,11.30
2023-05-14T02:54:38.874Z,10.10
2023-05-14T02:57:06.336Z,10.30
2023-05-14T02:59:33.240Z,11.07
2023-05-14T03:02:00.611Z,10.93
2023-05-14T03:04:27.938Z,10.20
2023-05-14T03:06:54.690Z,11.30
2023-05-14T03:09:21.432Z,11.57
2023-05-14T03:11:48.325Z,11.43
2023-05-14T03:14:15.083Z,10.88
2023-05-14T03:16:42.483Z,10.32
2023-05-14T03:19:10.013Z,9.57
2023-05-14T03:21:37.025Z,12.82
2023-05-14T03:24:04.188Z,12.98
2023-05-14T03:26:30.922Z,13.63
2023-05-14T03:28:57.614Z,13.00
2023-05-14T03:31:24.962Z,13.90
2023-05-14T03:33:51.905Z,12.13
2023-05-14T03:36:19.055Z,12.63
2023-05-14T03:38:45.785Z,13.07
2023-05-14T03:41:12.477Z,10.85
2023-05-14T03:43:39.308Z,11.30
2023-05-14T03:46:06.075Z,12.60
2023-05-14T03:48:32.806Z,11.73
2023-05-14T03:50:59.786Z,10.52
2023-05-14T03:53:26.629Z,10.45
2023-05-14T03:55:53.337Z,10.30
2023-05-14T03:58:20.070Z,10.32
2023-05-14T04:00:47.069Z,10.30
2023-05-14T04:03:13.908Z,10.55
2023-05-14T04:05:41.182Z,10.32
2023-05-14T04:08:08.077Z,11.00
2023-05-14T04:10:35.856Z,9.55
2023-05-14T04:13:02.808Z,10.48
2023-05-14T04:15:29.586Z,9.73
2023-05-14T04:17:56.383Z,10.57
2023-05-14T04:20:23.225Z,9.27
2023-05-14T04:22:50.113Z,8.88
2023-05-14T04:25:18.582Z,8.48
2023-05-14T04:27:45.569Z,8.75
2023-05-14T04:30:12.635Z,8.23
2023-05-14T04:32:39.407Z,8.35
2023-05-14T04:35:06.933Z,9.30
2023-05-14T04:37:33.656Z,9.40
2023-05-14T04:40:01.050Z,8.65
2023-05-14T04:42:27.850Z,9.30
2023-05-14T04:44:54.550Z,9.18
2023-05-14T04:47:21.286Z,8.82
2023-05-14T04:49:48.348Z,9.57
2023-05-14T04:52:15.079Z,8.80
2023-05-14T04:54:41.873Z,8.90
2023-05-14T04:57:08.715Z,8.07
2023-05-14T04:59:35.576Z,8.48
2023-05-14T05:02:02.506Z,9.15
2023-05-14T05:04:29.331Z,7.45
2023-05-14T05:06:56.068Z,7.88
2023-05-14T05:09:22.816Z,8.02
2023-05-14T05:11:49.449Z,7.75
2023-05-14T05:14:23.542Z,7.68
2023-05-14T05:16:51.505Z,7.70
2023-05-14T05:19:22.375Z,7.68
2023-05-14T05:21:53.485Z,9.23
2023-05-14T05:24:20.190Z,8.20
2023-05-14T05:26:47.155Z,8.15
2023-05-14T05:29:13.862Z,8.13
2023-05-14T05:31:40.857Z,7.53
2023-05-14T05:34:07.595Z,8.48
2023-05-14T05:36:34.366Z,8.25
2023-05-14T05:39:01.112Z,8.45
2023-05-14T05:41:27.907Z,8.85
2023-05-14T05:43:54.649Z,8.63
2023-05-14T05:46:21.991Z,8.57
2023-05-14T05:48:48.709Z,7.20
2023-05-14T05:51:15.470Z,7.47
2023-05-14T05:53:44.551Z,7.13
2023-05-14T05:56:11.262Z,7.47
2023-05-14T05:58:38.812Z,6.47
2023-05-14T06:01:05.777Z,6.57
2023-05-14T06:03:34.948Z,5.55
2023-05-14T06:06:01.654Z,6.38
2023-05-14T06:08:29.424Z,6.35
2023-05-14T06:10:56.162Z,5.55
2023-05-14T06:13:22.841Z,4.80
2023-05-14T06:15:49.594Z,5.90
2023-05-14T06:18:16.297Z,5.38
2023-05-14T06:20:45.330Z,5.13
2023-05-14T06:23:12.446Z,5.78
2023-05-14T06:25:39.543Z,4.65
2023-05-14T06:28:06.533Z,4.50
2023-05-14T06:30:34.446Z,4.82
2023-05-14T06:33:01.596Z,4.40
2023-05-14T06:35:28.460Z,4.38
2023-05-14T06:37:57.241Z,4.45
2023-05-14T06:40:24.117Z,3.92
2023-05-14T06:42:51.044Z,3.70
2023-05-14T06:45:17.957Z,4.38
2023-05-14T06:47:45.881Z,3.90
2023-05-14T06:50:13.010Z,3.70
2023-05-14T06:52:41.859Z,3.35
2023-05-14T06:55:08.920Z,3.72
2023-05-14T06:57:35.754Z,5.03
2023-05-14T07:00:03.773Z,3.33
2023-05-14T07:02:30.941Z,3.23
2023-05-14T07:04:57.759Z,3.00
2023-05-14T07:07:24.554Z,3.25
2023-05-14T07:09:51.814Z,3.13
2023-05-14T07:12:18.490Z,3.05
2023-05-14T07:14:45.296Z,3.15
2023-05-14T07:17:13.185Z,3.00
2023-05-14T07:19:41.073Z,2.88
2023-05-14T07:22:07.758Z,2.83
2023-05-14T07:24:34.449Z,2.35
2023-05-14T07:27:02.062Z,3.10
2023-05-14T07:29:30.653Z,2.90
2023-05-14T07:31:57.333Z,2.80
2023-05-14T07:34:24.022Z,2.67
2023-05-14T07:36:51.203Z,2.90
2023-05-14T07:39:18.326Z,2.95
2023-05-14T07:41:45.060Z,3.25
2023-05-14T07:44:11.845Z,3.05
2023-05-14T07:46:38.579Z,3.03
2023-05-14T07:49:05.735Z,3.40
2023-05-14T07:51:33.623Z,3.30
2023-05-14T07:54:01.447Z,3.70
2023-05-14T07:56:28.606Z,3.38
2023-05-14T07:58:56.672Z,3.13
2023-05-14T08:01:25.287Z,3.30
2023-05-14T08:03:52.154Z,3.38
2023-05-14T08:06:21.117Z,3.72
2023-05-14T08:08:47.889Z,3.45
2023-05-14T08:11:15.836Z,3.20
2023-05-14T08:13:42.657Z,3.55
2023-05-14T08:16:09.414Z,3.75
2023-05-14T08:18:37.252Z,3.92
2023-05-14T08:21:04.142Z,3.17
2023-05-14T08:23:30.905Z,3.72
2023-05-14T08:25:57.565Z,4.25
2023-05-14T08:28:24.297Z,3.90
2023-05-14T08:30:51.703Z,4.25
2023-05-14T08:33:18.467Z,4.20
2023-05-14T08:35:45.137Z,4.50
2023-05-14T08:38:11.828Z,4.20
2023-05-14T08:40:38.535Z,4.10
2023-05-14T08:43:08.094Z,3.78
2023-05-14T08:45:35.753Z,4.30
2023-05-14T08:48:08.906Z,4.68
2023-05-14T08:50:36.400Z,4.45
2023-05-14T08:53:04.275Z,4.13
2023-05-14T08:55:33.712Z,4.70
2023-05-14T08:58:01.337Z,4.20
2023-05-14T09:00:28.196Z,4.53
2023-05-14T09:02:56.005Z,3.72
2023-05-14T09:05:23.690Z,3.90
2023-05-14T09:07:50.427Z,4.03
2023-05-14T09:10:17.628Z,4.43
2023-05-14T09:12:44.645Z,4.53
2023-05-14T09:15:11.378Z,4.30
2023-05-14T09:17:38.190Z,4.45
2023-05-14T09:20:06.037Z,4.60
2023-05-14T09:22:36.975Z,4.43
2023-05-14T09:25:06.532Z,5.28
2023-05-14T09:27:34.249Z,4.80
2023-05-14T09:30:12.628Z,4.40
2023-05-14T09:32:44.256Z,4.88
2023-05-14T09:35:17.320Z,4.75
2023-05-14T09:37:47.434Z,4.68
2023-05-14T09:40:14.760Z,4.60
2023-05-14T09:42:41.907Z,4.70
2023-05-14T09:45:10.130Z,4.40
2023-05-14T09:47:38.189Z,4.75
2023-05-14T09:50:05.985Z,4.95
2023-05-14T09:52:33.155Z,4.60
2023-05-14T09:55:00.979Z,4.45
2023-05-14T09:57:27.815Z,5.07
2023-05-14T09:59:54.527Z,4.90
2023-05-14T10:02:25.560Z,5.13
2023-05-14T10:04:54.721Z,4.80
2023-05-14T10:07:26.481Z,4.60
2023-05-14T10:10:02.114Z,4.30
2023-05-14T10:12:37.485Z,4.00
2023-05-14T10:15:32.721Z,4.32
2023-05-14T10:18:08.126Z,4.57
2023-05-14T10:20:36.108Z,4.50
2023-05-14T10:23:06.013Z,4.25
2023-05-14T10:25:34.346Z,3.72
2023-05-14T10:28:02.673Z,3.90
2023-05-14T10:30:29.497Z,4.32
2023-05-14T10:33:08.286Z,4.10
2023-05-14T10:35:57.885Z,3.70
2023-05-14T10:38:29.547Z,4.53
2023-05-14T10:41:17.923Z,4.30
2023-05-14T10:43:44.854Z,3.70
2023-05-14T10:46:13.450Z,4.03
2023-05-14T10:48:43.777Z,3.83
2023-05-14T10:51:11.500Z,4.10
2023-05-14T10:53:41.231Z,3.88
2023-05-14T10:56:11.599Z,3.85
2023-05-14T10:58:40.304Z,3.55
2023-05-14T11:01:13.400Z,3.55
2023-05-14T11:03:45.552Z,3.72
2023-05-14T11:06:16.108Z,3.70
2023-05-14T11:08:44.112Z,3.72
2023-05-14T11:11:11.115Z,4.22
2023-05-14T11:13:38.566Z,4.68
2023-05-14T11:18:41.957Z,4.15
2023-05-14T11:21:08.992Z,3.28
2023-05-14T11:23:37.553Z,3.40
2023-05-14T11:26:04.609Z,2.77
2023-05-14T11:28:31.501Z,3.17
2023-05-14T11:30:59.308Z,3.58
2023-05-14T11:33:27.984Z,3.28
2023-05-14T11:35:54.764Z,3.70
2023-05-14T11:38:21.905Z,3.40
2023-05-14T11:40:58.191Z,3.40
2023-05-14T11:43:28.517Z,3.20
2023-05-14T11:45:55.965Z,3.20
2023-05-14T11:48:25.185Z,3.90
2023-05-14T11:50:53.208Z,3.30
2023-05-14T11:53:31.307Z,3.17
2023-05-14T11:55:58.346Z,3.28
2023-05-14T11:58:25.495Z,3.20
2023-05-14T12:00:55.879Z,3.45
2023-05-14T12:03:30.361Z,3.17
2023-05-14T12:06:01.321Z,3.22
2023-05-14T12:08:31.964Z,2.53
2023-05-14T12:11:00.522Z,2.70
2023-05-14T12:13:31.472Z,2.77
2023-05-14T12:16:01.019Z,2.80
2023-05-14T12:18:29.920Z,2.90
2023-05-14T12:21:02.210Z,3.10
2023-05-14T12:23:33.190Z,3.53
2023-05-14T12:26:06.201Z,2.97
2023-05-14T12:28:35.314Z,3.00
2023-05-14T12:31:03.800Z,3.00
2023-05-14T12:33:30.677Z,3.00
2023-05-14T12:36:13.960Z,2.85
2023-05-14T12:38:48.104Z,2.65
2023-05-14T12:41:14.800Z,3.08
2023-05-14T12:43:45.372Z,2.90
2023-05-14T12:46:12.421Z,2.75
2023-05-14T12:48:39.214Z,3.00
2023-05-14T12:51:06.685Z,2.60
2023-05-14T12:53:34.901Z,2.60
2023-05-14T12:56:02.093Z,2.70
2023-05-14T12:58:28.889Z,1.92
2023-05-14T13:00:56.501Z,2.15
2023-05-14T13:03:35.641Z,2.60
2023-05-14T13:06:02.299Z,3.22
2023-05-14T13:08:30.411Z,3.20
2023-05-14T13:10:57.212Z,2.90
2023-05-14T13:13:23.935Z,2.50
2023-05-14T13:15:50.966Z,2.67
2023-05-14T13:18:18.020Z,2.00
2023-05-14T13:20:46.334Z,2.40
2023-05-14T13:23:13.544Z,2.15
2023-05-14T13:25:41.578Z,2.13
2023-05-14T13:28:11.317Z,2.70
2023-05-14T13:30:38.466Z,2.05
2023-05-14T13:33:05.774Z,2.22
2023-05-14T13:35:33.159Z,2.17
2023-05-14T13:38:01.196Z,1.90
2023-05-14T13:40:27.930Z,2.42
2023-05-14T13:42:54.663Z,1.63
2023-05-14T13:45:21.835Z,2.40
2023-05-14T13:47:51.846Z,2.38
2023-05-14T13:50:18.666Z,2.40
2023-05-14T13:52:45.622Z,2.22
2023-05-14T13:55:16.281Z,2.03
2023-05-14T13:57:43.811Z,1.73
2023-05-14T14:00:14.234Z,2.03
2023-05-14T14:02:42.779Z,2.50
2023-05-14T14:05:09.933Z,2.13
2023-05-14T14:07:39.509Z,1.90
2023-05-14T14:10:07.092Z,2.38
2023-05-14T14:12:34.272Z,2.08
2023-05-14T14:15:03.186Z,1.85
2023-05-14T14:17:29.933Z,2.45
2023-05-14T14:19:56.766Z,1.83
2023-05-14T14:22:26.151Z,2.00
2023-05-14T14:24:55.251Z,1.80
2023-05-14T14:27:22.551Z,2.00
2023-05-14T14:29:51.288Z,1.83
2023-05-14T14:32:18.042Z,1.85
2023-05-14T14:34:44.910Z,2.35
2023-05-14T14:37:11.644Z,1.90
2023-05-14T14:39:38.313Z,1.95
2023-05-14T14:42:05.832Z,2.10
2023-05-14T14:44:32.544Z,2.25
2023-05-14T14:47:00.628Z,1.98
2023-05-14T14:49:28.687Z,2.30
2023-05-14T14:51:55.731Z,2.28
2023-05-14T14:54:22.433Z,2.38
2023-05-14T14:56:53.253Z,2.15
2023-05-14T14:59:20.007Z,2.40
2023-05-14T15:01:46.829Z,2.00
2023-05-14T15:04:13.781Z,1.98
2023-05-14T15:06:41.627Z,2.10
2023-05-14T15:09:09.258Z,2.00
2023-05-14T15:11:37.421Z,2.17
2023-05-14T15:14:04.501Z,2.17
2023-05-14T15:16:31.246Z,2.17
2023-05-14T15:18:59.648Z,2.00
2023-05-14T15:21:27.527Z,2.15
2023-05-14T15:23:54.167Z,1.85
2023-05-14T15:26:21.828Z,1.85
2023-05-14T15:28:49.505Z,2.40
2023-05-14T15:31:16.566Z,1.98
2023-05-14T15:33:45.529Z,2.00
2023-05-14T15:36:12.805Z,2.20
2023-05-14T15:38:42.948Z,2.20
2023-05-14T15:41:09.915Z,2.17
2023-05-14T15:43:38.800Z,2.20
2023-05-14T15:46:06.122Z,2.08
2023-05-14T15:48:34.212Z,2.22
2023-05-14T15:51:00.907Z,2.00
2023-05-14T15:53:28.108Z,2.97
2023-05-14T15:55:54.993Z,2.15
2023-05-14T15:58:23.997Z,2.30
2023-05-14T16:00:50.729Z,2.00
2023-05-14T16:03:19.146Z,1.75
2023-05-14T16:05:45.978Z,1.75
2023-05-14T16:08:12.720Z,2.00
2023-05-14T16:10:39.466Z,1.80
2023-05-14T16:13:09.325Z,2.17
2023-05-14T16:15:37.251Z,2.42
2023-05-14T16:18:04.203Z,2.05
2023-05-14T16:20:30.935Z,2.03
2023-05-14T16:22:58.364Z,2.03
2023-05-14T16:25:25.140Z,2.83
2023-05-14T16:27:51.861Z,2.00
2023-05-14T16:30:18.756Z,2.25
2023-05-14T16:32:49.534Z,1.63
2023-05-14T16:35:17.024Z,2.08
2023-05-14T16:37:43.851Z,2.03
2023-05-14T16:40:11.958Z,1.80
2023-05-14T16:42:38.964Z,2.58
2023-05-14T16:45:06.443Z,2.08
2023-05-14T16:47:33.237Z,1.95
2023-05-14T16:50:00.188Z,1.90
2023-05-14T16:52:26.875Z,2.25
2023-05-14T16:54:53.640Z,2.15
2023-05-14T16:57:20.348Z,2.28
2023-05-14T16:59:47.141Z,2.75
2023-05-14T17:02:13.825Z,2.42
2023-05-14T17:04:44.617Z,2.75
2023-05-14T17:07:11.820Z,2.38
2023-05-14T17:09:38.707Z,2.88
2023-05-14T17:12:07.182Z,2.30
2023-05-14T17:14:33.979Z,2.53
2023-05-14T17:17:03.228Z,2.20
2023-05-14T17:19:29.955Z,2.75
2023-05-14T17:21:57.117Z,2.20
2023-05-14T17:24:25.041Z,2.40
2023-05-14T17:26:51.999Z,2.55
2023-05-14T17:29:18.710Z,2.40
2023-05-14T17:31:45.710Z,2.65
2023-05-14T17:34:13.365Z,2.65
2023-05-14T17:36:41.868Z,2.80
2023-05-14T17:39:09.207Z,2.95
2023-05-14T17:41:35.938Z,2.95
2023-05-14T17:44:03.366Z,2.80
2023-05-14T17:46:30.622Z,2.58
2023-05-14T17:48:58.466Z,2.80
2023-05-14T17:51:26.183Z,3.00
2023-05-14T17:53:52.988Z,3.30
2023-05-14T17:56:21.111Z,3.00
2023-05-14T17:58:49.333Z,2.75
2023-05-14T18:01:17.830Z,3.33
2023-05-14T18:03:44.877Z,2.83
2023-05-14T18:06:11.677Z,3.28
2023-05-14T18:08:38.422Z,3.13
2023-05-14T18:11:06.245Z,2.97
2023-05-14T18:13:33.221Z,1.80
2023-05-14T18:16:01.825Z,2.92
2023-05-14T18:18:30.920Z,2.00
2023-05-14T18:21:01.302Z,2.50
2023-05-14T18:23:28.127Z,3.38
2023-05-14T18:25:54.829Z,3.10
2023-05-14T18:28:24.416Z,3.55
2023-05-14T18:30:51.359Z,3.20
2023-05-14T18:33:18.273Z,3.55
2023-05-14T18:35:45.041Z,3.67
2023-05-14T18:38:13.851Z,3.70
2023-05-14T18:40:40.860Z,3.10
2023-05-14T18:43:07.690Z,3.70
2023-05-14T18:45:34.939Z,3.83
2023-05-14T18:48:01.759Z,3.63
2023-05-14T18:50:30.222Z,3.85
2023-05-14T18:52:56.936Z,4.10
2023-05-14T18:55:25.827Z,4.03
2023-05-14T18:57:52.891Z,3.80
2023-05-14T19:00:19.988Z,4.00
2023-05-14T19:02:46.762Z,3.75
2023-05-14T19:05:13.570Z,3.25
2023-05-14T19:07:41.175Z,3.70
2023-05-14T19:10:08.649Z,3.00
2023-05-14T19:12:35.429Z,2.88
2023-05-14T19:15:02.222Z,3.28
2023-05-14T19:17:32.822Z,3.20
2023-05-14T19:19:59.726Z,2.85
2023-05-14T19:22:26.396Z,3.13
2023-05-14T19:24:54.197Z,3.45
2023-05-14T19:27:20.951Z,2.92
2023-05-14T19:29:47.703Z,3.55
2023-05-14T19:32:14.553Z,3.67
2023-05-14T19:34:41.938Z,3.60
2023-05-14T19:37:08.978Z,3.67
2023-05-14T19:39:35.812Z,3.97
2023-05-14T19:42:03.406Z,4.13
2023-05-14T19:44:31.768Z,3.92
2023-05-14T19:46:58.886Z,4.80
2023-05-14T19:49:25.658Z,4.90
2023-05-14T19:51:52.427Z,4.97
2023-05-14T19:54:19.100Z,4.88
2023-05-14T19:56:45.847Z,4.97
2023-05-14T19:59:13.954Z,5.65
2023-05-14T20:01:41.549Z,6.05
2023-05-14T20:04:08.869Z,6.22
2023-05-14T20:06:35.674Z,6.03
2023-05-14T20:09:02.563Z,6.88
2023-05-14T20:11:29.397Z,7.03
2023-05-14T20:13:56.160Z,7.20
2023-05-14T20:16:25.202Z,7.15
2023-05-14T20:18:54.072Z,6.88
2023-05-14T20:21:20.807Z,7.00
2023-05-14T20:23:47.606Z,7.57
2023-05-14T20:26:14.395Z,6.78
2023-05-14T20:28:43.464Z,8.25
2023-05-14T20:31:10.204Z,7.05
2023-05-14T20:33:38.982Z,7.53
2023-05-14T20:36:05.778Z,6.85
2023-05-14T20:38:35.013Z,6.90
2023-05-14T20:41:02.253Z,6.18
2023-05-14T20:43:28.982Z,6.38
2023-05-14T20:45:57.571Z,8.15
2023-05-14T20:48:24.762Z,7.88
2023-05-14T20:50:51.517Z,9.52
2023-05-14T20:53:18.332Z,9.50
2023-05-14T20:55:45.179Z,9.90
2023-05-14T20:58:11.903Z,9.63
2023-05-14T21:00:39.415Z,9.95
2023-05-14T21:03:06.370Z,9.07
2023-05-14T21:05:33.537Z,10.23
2023-05-14T21:08:00.469Z,10.20
2023-05-14T21:10:27.469Z,12.05
2023-05-14T21:12:54.375Z,12.07
2023-05-14T21:15:21.581Z,12.25
2023-05-14T21:17:48.602Z,11.50
2023-05-14T21:20:15.696Z,11.98
2023-05-14T21:22:42.503Z,11.25
2023-05-14T21:25:09.910Z,11.65
2023-05-14T21:27:36.866Z,10.88
2023-05-14T21:30:05.398Z,11.60
2023-05-14T21:32:32.209Z,10.93
2023-05-14T21:34:59.039Z,10.43
2023-05-14T21:37:25.844Z,10.52
2023-05-14T21:39:52.522Z,10.32
2023-05-14T21:42:21.259Z,9.50
2023-05-14T21:44:48.052Z,10.07
2023-05-14T21:47:16.189Z,10.90
2023-05-14T21:49:43.333Z,9.73
2023-05-14T21:52:10.136Z,10.07
2023-05-14T21:54:38.272Z,10.00
2023-05-14T21:57:05.192Z,9.20
2023-05-14T21:59:33.408Z,10.35
2023-05-14T22:04:30.690Z,9.52
2023-05-14T22:06:57.430Z,9.25
2023-05-14T22:09:24.170Z,8.93
2023-05-14T22:11:50.931Z,9.50
2023-05-14T22:14:17.699Z,9.23
2023-05-14T22:16:44.508Z,9.25
2023-05-14T22:19:12.472Z,8.65
2023-05-14T22:21:39.512Z,8.52
2023-05-14T22:24:06.517Z,8.70
2023-05-14T22:26:33.484Z,8.55
2023-05-14T22:29:00.184Z,6.85
2023-05-14T22:31:26.939Z,6.82
2023-05-14T22:33:53.815Z,6.57
2023-05-14T22:36:20.602Z,7.03
2023-05-14T22:38:48.781Z,6.55
2023-05-14T22:41:17.682Z,6.05
2023-05-14T22:43:44.563Z,6.00
2023-05-14T22:46:11.347Z,5.93
2023-05-14T22:48:38.104Z,6.10
2023-05-14T22:51:05.819Z,5.75
2023-05-14T22:53:32.569Z,5.70
2023-05-14T22:55:59.311Z,5.60
2023-05-14T22:58:25.985Z,5.50
2023-05-14T23:00:52.729Z,4.88
2023-05-14T23:03:19.408Z,4.68
2023-05-14T23:05:47.744Z,4.10
2023-05-14T23:08:14.422Z,4.80
2023-05-14T23:10:41.116Z,3.95
2023-05-14T23:13:07.826Z,4.25
2023-05-14T23:15:34.757Z,4.97
2023-05-14T23:18:01.723Z,4.35
2023-05-14T23:20:28.455Z,4.70
2023-05-14T23:22:55.230Z,4.15
2023-05-14T23:25:22.067Z,4.85
2023-05-14T23:27:50.160Z,4.65
2023-05-14T23:30:17.096Z,5.18
2023-05-14T23:32:43.888Z,4.85
2023-05-14T23:35:10.717Z,6.63
2023-05-14T23:37:41.800Z,7.45
2023-05-14T23:40:09.721Z,8.23
2023-05-14T23:42:36.868Z,8.70
2023-05-14T23:45:04.127Z,9.32
2023-05-14T23:47:31.171Z,8.35
2023-05-14T23:49:57.951Z,8.05
2023-05-14T23:52:24.671Z,7.38
2023-05-14T23:54:51.347Z,8.65
2023-05-14T23:57:18.168Z,5.95
2023-05-14T23:59:47.471Z,6.35
